map of YUX home
YUX - Airport
Location
City:  Hall Beach, Nunavut, Canada
Name:Hall Beach Airport
ICAO:CYUX
IATA:YUX

Details
Type:Airport (Airfield)
Use:Public/Civil
Latitude:6846'33"N (68.775833)
Longitude:8114'33"W (-81.242499)
Elevation:30 ft (9 m)
Variation:26.18W (WMM2015v2 magnetic declination)
0.67 annual change
Runways:1
Longest:5410 ft (1649 m)

Time
Time Zone:UTC-5 (DST-4)
Local Time:

Weather
METAR:CYUX 041400Z 36013KT 8SM IC FEW008 SCT080 M25/M27 A2996 RMK SC1AC3 SC TR SLP147
TAF:CYUX 041238Z 0413/0501 35010KT P6SM FEW015
TEMPO 0413/0417 3SM IC BR BKN015
FM041700 35015G25KT 6SM IC BLSN SCT015
TEMPO 0417/0501 2SM IC BLSN
RMK NXT FCST BY 041900Z

Related Locations
Nearby:
Farthest:YWKS: 12069 mi / 19423 km
Wilkins Runway (Casey), Upper Peterson Glacier, AQ

Find:

   beyond  
but within

Other Information
Maps:
NOTAMs:
Links:
Sources:

  
  • flag of Canada
  • flag of Nunavut
  

Airport Diagram

Airport diagram for YUX

Airport diagram PDF

Sectional Chart

Flight Planning
at skyvector.com

Satellite Image

Google Maps Satellite view

 

Copyright © 2004-2019 Karl L. Swartz. All rights reserved.
The Great Circle Mapper name and logo are trademarks of the Great Circle Mapper.
All other trademarks mentioned herein belong to their respective owners.
Please see credits for attibutions and further copyright information.

  Follow gcmap on Facebook Follow gcmap on Twitter GCmap on LinkedIn

hCard Microformat

Geo Microformat